Time;durP1;ratioP1;P1;durP2;ratioP2;P2;SDS_P1;SDS_P2;PMS_P1;PMS_P2;Temp;Humidity;BMP_temperature;BMP_pressure;BME280_temperature;BME280_humidity;BME280_pressure;Samples;Min_cycle;Max_cycle;Signal;HPM_P1;HPM_P2
2023/05/02 00:00:06;;;;;;;0.30;0.20;;;16.50;96.70;;;;;;4943989;28;20054;-73
2023/05/02 00:02:35;;;;;;;0.95;0.40;;;16.70;96.70;;;;;;4942208;28;20461;-73
2023/05/02 00:05:06;;;;;;;0.50;0.30;;;16.80;96.70;;;;;;4941683;28;20043;-73
2023/05/02 00:07:35;;;;;;;1.13;0.40;;;16.70;96.70;;;;;;4941819;28;20074;-73
2023/05/02 00:10:04;;;;;;;1.48;0.43;;;16.60;96.70;;;;;;4943139;28;20058;-73
2023/05/02 00:12:33;;;;;;;0.95;0.47;;;16.30;96.70;;;;;;4942719;28;20416;-73
2023/05/02 00:15:01;;;;;;;2.05;0.50;;;16.20;96.70;;;;;;4926473;29;20678;-73
2023/05/02 00:17:30;;;;;;;1.67;0.70;;;16.30;96.70;;;;;;4944238;28;20043;-73
2023/05/02 00:19:58;;;;;;;1.23;0.60;;;16.10;96.70;;;;;;4943582;28;20042;-73
2023/05/02 00:22:28;;;;;;;1.02;0.80;;;16.10;96.70;;;;;;4943705;28;20476;-74
2023/05/02 00:24:57;;;;;;;1.58;0.90;;;16.30;96.70;;;;;;4944209;28;20051;-73
2023/05/02 00:27:25;;;;;;;2.00;0.70;;;16.30;96.70;;;;;;4927099;29;20413;-74
2023/05/02 00:29:53;;;;;;;1.48;1.00;;;16.40;96.70;;;;;;4941983;28;20116;-73
2023/05/02 00:32:21;;;;;;;2.10;0.80;;;16.40;96.70;;;;;;4942555;28;20046;-73
2023/05/02 00:34:50;;;;;;;1.50;1.00;;;16.60;96.70;;;;;;4942213;28;20047;-73
2023/05/02 00:41:32;;;;;;;1.52;0.63;;;16.70;96.70;;;;;;4944134;28;20496;-73
2023/05/02 00:44:01;;;;;;;1.25;0.77;;;16.70;96.70;;;;;;4943164;28;20461;-74
2023/05/02 00:46:30;;;;;;;2.28;0.70;;;16.70;96.70;;;;;;4923548;28;20335;-73
2023/05/02 00:49:00;;;;;;;0.55;0.45;;;16.60;96.70;;;;;;4944162;28;20136;-72
2023/05/02 01:04:19;;;;;;;2.90;0.93;;;16.30;96.70;;;;;;4941772;28;20143;-73
2023/05/02 01:07:04;;;;;;;1.10;0.80;;;16.10;96.70;;;;;;4942072;28;20062;-74
2023/05/02 01:09:56;;;;;;;3.13;0.77;;;15.90;96.70;;;;;;4942284;28;20085;-72
2023/05/02 01:12:32;;;;;;;1.42;0.40;;;15.90;96.70;;;;;;4940550;28;20051;-73
2023/05/02 01:57:09;;;;;;;1.00;0.50;;;15.50;96.70;;;;;;4941476;28;20049;-73
2023/05/02 01:59:40;;;;;;;1.00;0.68;;;15.50;96.70;;;;;;4939214;28;20043;-73
2023/05/02 02:02:09;;;;;;;1.58;0.50;;;15.60;96.70;;;;;;4943675;28;20122;-74
2023/05/02 02:04:39;;;;;;;2.72;0.63;;;15.70;96.70;;;;;;4940938;28;20054;-73
2023/05/02 03:14:45;;;;;;;3.33;0.70;;;15.10;96.70;;;;;;4925974;28;20162;-72
2023/05/02 03:17:13;;;;;;;1.98;0.60;;;15.10;96.70;;;;;;4940813;28;20070;-73
2023/05/02 03:19:42;;;;;;;2.17;0.82;;;15.20;96.70;;;;;;4939844;28;20058;-73
2023/05/02 03:22:11;;;;;;;2.78;1.05;;;15.10;96.70;;;;;;4941757;28;20102;-73
2023/05/02 03:24:40;;;;;;;1.98;1.45;;;15.10;96.70;;;;;;4942400;28;20039;-73
2023/05/02 03:53:21;;;;;;;0.47;0.35;;;16.00;96.70;;;;;;4942300;28;20062;-73
2023/05/02 03:55:56;;;;;;;1.38;0.50;;;16.10;96.70;;;;;;4943252;28;20047;-73
2023/05/02 03:58:36;;;;;;;1.38;0.70;;;15.90;96.70;;;;;;4942196;28;20067;-73
2023/05/02 04:01:18;;;;;;;2.22;0.80;;;15.80;96.70;;;;;;4943862;28;20050;-73
2023/05/02 04:21:09;;;;;;;5.05;1.27;;;15.70;96.70;;;;;;4917892;29;20777;-73
2023/05/02 04:23:39;;;;;;;4.47;3.10;;;15.80;96.70;;;;;;4907316;29;20047;-72
2023/05/02 04:26:07;;;;;;;3.20;2.13;;;15.80;96.70;;;;;;4907918;29;20143;-72
2023/05/02 04:28:51;;;;;;;3.75;2.53;;;15.90;96.70;;;;;;4910119;29;20058;-72
2023/05/02 04:31:19;;;;;;;2.40;1.77;;;16.00;96.70;;;;;;4923789;29;20056;-72
2023/05/02 04:33:48;;;;;;;2.88;1.60;;;16.00;96.70;;;;;;4923830;29;20040;-72
2023/05/02 04:36:21;;;;;;;1.85;1.40;;;16.00;96.70;;;;;;4908359;29;20052;-72
2023/05/02 04:38:51;;;;;;;1.60;0.80;;;16.00;96.70;;;;;;4921740;29;20044;-73
2023/05/02 04:41:20;;;;;;;1.30;0.85;;;16.10;96.70;;;;;;4923926;29;20056;-72
2023/05/02 04:43:56;;;;;;;1.90;0.80;;;16.20;96.70;;;;;;4908820;29;20075;-73
2023/05/02 04:46:24;;;;;;;1.10;0.80;;;16.10;96.70;;;;;;4923821;29;20055;-72
2023/05/02 04:48:53;;;;;;;1.85;0.85;;;16.10;96.70;;;;;;4924227;29;20545;-73
2023/05/02 04:51:23;;;;;;;1.27;0.63;;;16.20;96.70;;;;;;4922688;29;20043;-73
2023/05/02 04:53:52;;;;;;;2.72;0.90;;;16.10;96.70;;;;;;4922433;29;20512;-73
2023/05/02 04:56:20;;;;;;;2.75;0.90;;;16.20;96.70;;;;;;4922746;29;20114;-73
2023/05/02 04:58:50;;;;;;;1.70;1.33;;;16.10;96.70;;;;;;4922769;29;20047;-73
2023/05/02 05:01:18;;;;;;;2.03;1.08;;;15.90;96.70;;;;;;4925694;29;20040;-72
2023/05/02 05:03:47;;;;;;;6.30;1.83;;;15.90;96.70;;;;;;4906923;29;20051;-73
2023/05/02 05:06:18;;;;;;;2.22;1.77;;;16.00;96.70;;;;;;4924207;29;20039;-72
2023/05/02 05:08:49;;;;;;;3.22;1.70;;;16.00;96.70;;;;;;4923083;29;20517;-72
2023/05/02 05:11:17;;;;;;;1.83;1.42;;;16.10;96.70;;;;;;4924211;29;20568;-72
2023/05/02 05:13:45;;;;;;;3.70;1.50;;;16.20;96.70;;;;;;4906367;29;20071;-73
2023/05/02 05:16:15;;;;;;;3.08;1.58;;;16.20;96.70;;;;;;4922550;29;20143;-73
2023/05/02 05:18:44;;;;;;;3.88;1.70;;;16.20;96.70;;;;;;4923164;29;20044;-73
2023/05/02 05:21:14;;;;;;;2.90;1.63;;;16.10;96.70;;;;;;4923014;29;20055;-72
2023/05/02 05:23:44;;;;;;;1.95;1.55;;;16.10;96.70;;;;;;4940892;28;20047;-72
2023/05/02 05:26:20;;;;;;;2.03;1.17;;;16.10;96.70;;;;;;4942458;28;20071;-74
2023/05/02 05:28:49;;;;;;;1.38;1.20;;;16.10;96.70;;;;;;4925246;28;20054;-72
2023/05/02 05:31:19;;;;;;;1.92;1.00;;;16.20;96.70;;;;;;4940902;28;20065;-73
2023/05/02 05:33:52;;;;;;;3.35;1.10;;;16.30;96.70;;;;;;4925564;29;20560;-72
2023/05/02 05:36:22;;;;;;;2.92;1.15;;;16.40;96.70;;;;;;4942032;28;20051;-72
2023/05/02 05:38:51;;;;;;;2.92;1.25;;;16.40;96.70;;;;;;4925972;29;20102;-72
2023/05/02 05:41:23;;;;;;;1.52;0.85;;;16.40;96.70;;;;;;4926768;28;20047;-73
2023/05/02 05:43:59;;;;;;;1.60;1.15;;;16.40;96.70;;;;;;4941365;28;20043;-73
2023/05/02 05:46:30;;;;;;;2.10;1.10;;;16.50;96.70;;;;;;4941495;28;20098;-73
2023/05/02 05:49:00;;;;;;;1.65;1.00;;;16.50;96.70;;;;;;4940178;28;20047;-73
2023/05/02 05:51:30;;;;;;;3.10;1.10;;;16.50;96.70;;;;;;4941215;28;20050;-73
2023/05/02 05:53:59;;;;;;;2.05;0.75;;;16.50;96.70;;;;;;4941290;28;20043;-73
2023/05/02 05:56:29;;;;;;;2.13;0.70;;;16.50;96.70;;;;;;4942584;28;20102;-72
2023/05/02 05:59:07;;;;;;;3.28;1.17;;;16.50;96.70;;;;;;4941401;28;20065;-72
2023/05/02 06:01:36;;;;;;;2.20;0.90;;;16.50;96.70;;;;;;4939343;28;20047;-73
2023/05/02 06:04:06;;;;;;;2.88;0.80;;;16.50;96.70;;;;;;4940171;28;20053;-73
2023/05/02 06:06:40;;;;;;;2.22;1.05;;;16.50;96.70;;;;;;4940027;28;20190;-73
2023/05/02 06:09:08;;;;;;;1.52;0.50;;;16.50;96.70;;;;;;4940422;28;20051;-72
2023/05/02 06:11:38;;;;;;;1.33;0.30;;;16.60;96.70;;;;;;4940766;28;20039;-74
2023/05/02 06:14:07;;;;;;;0.63;0.30;;;16.60;96.70;;;;;;4939979;28;20613;-72
2023/05/02 06:16:36;;;;;;;0.88;0.32;;;16.70;96.70;;;;;;4941157;28;20168;-72
2023/05/02 06:19:05;;;;;;;0.98;0.20;;;16.70;96.70;;;;;;4922525;29;20046;-72
2023/05/02 06:21:36;;;;;;;0.43;0.20;;;16.70;96.70;;;;;;4942450;28;20063;-73
2023/05/02 06:24:05;;;;;;;1.40;0.10;;;16.70;96.70;;;;;;4942910;28;20050;-72
2023/05/02 06:26:33;;;;;;;0.30;0.00;;;16.70;96.70;;;;;;4941393;28;20510;-72
2023/05/02 06:29:03;;;;;;;0.20;0.00;;;16.70;96.70;;;;;;4941778;28;20130;-73
2023/05/02 06:31:31;;;;;;;0.05;0.00;;;16.70;96.70;;;;;;4940658;28;20505;-73
2023/05/02 06:33:59;;;;;;;0.88;0.00;;;16.80;96.70;;;;;;4943795;28;20051;-73
2023/05/02 06:36:27;;;;;;;1.38;0.10;;;16.80;96.70;;;;;;4942182;28;20045;-72
2023/05/02 06:38:56;;;;;;;0.50;0.10;;;16.80;96.70;;;;;;4941180;28;20080;-73
2023/05/02 06:41:24;;;;;;;0.30;0.15;;;16.80;96.70;;;;;;4943081;28;20094;-73
2023/05/02 06:43:52;;;;;;;1.38;0.15;;;16.80;96.70;;;;;;4942227;28;20043;-71
2023/05/02 06:46:22;;;;;;;0.73;0.25;;;16.80;96.70;;;;;;4943385;28;20073;-73
2023/05/02 06:48:50;;;;;;;2.75;0.35;;;16.80;96.70;;;;;;4944126;28;20441;-72
2023/05/02 06:51:20;;;;;;;1.08;0.20;;;16.80;96.70;;;;;;4944115;28;20556;-72
2023/05/02 06:53:48;;;;;;;1.10;0.20;;;16.90;96.70;;;;;;4943054;28;20085;-72
2023/05/02 06:56:16;;;;;;;4.47;0.30;;;16.90;96.70;;;;;;4926846;29;20055;-73
2023/05/02 06:58:44;;;;;;;1.48;0.30;;;17.00;96.70;;;;;;4941901;28;20047;-75
2023/05/02 07:01:13;;;;;;;4.43;0.57;;;17.00;96.70;;;;;;4942148;28;20055;-74
2023/05/02 07:03:45;;;;;;;2.72;0.30;;;17.10;96.70;;;;;;4942685;28;20066;-73
2023/05/02 07:06:14;;;;;;;2.17;0.30;;;17.10;96.70;;;;;;4943809;28;20102;-73
2023/05/02 07:08:43;;;;;;;2.38;0.57;;;17.10;96.70;;;;;;4942164;28;20040;-72
2023/05/02 07:11:11;;;;;;;3.95;0.75;;;17.20;96.70;;;;;;4943225;28;20054;-73
2023/05/02 07:13:39;;;;;;;3.40;0.88;;;17.20;96.70;;;;;;4944317;28;21728;-74
2023/05/02 07:16:08;;;;;;;3.08;0.65;;;17.30;96.70;;;;;;4937476;28;20501;-75
2023/05/02 07:18:36;;;;;;;2.88;0.75;;;17.30;96.70;;;;;;4944522;28;20039;-75
2023/05/02 07:21:07;;;;;;;3.40;0.77;;;17.40;96.70;;;;;;4947260;28;20138;-73
2023/05/02 07:23:35;;;;;;;2.67;0.50;;;17.50;96.70;;;;;;4922619;29;20513;-74
2023/05/02 07:26:06;;;;;;;1.20;0.30;;;17.50;96.70;;;;;;4892095;29;20131;-75
2023/05/02 07:28:35;;;;;;;1.60;0.20;;;17.60;96.70;;;;;;4907813;29;20510;-74
2023/05/02 07:31:03;;;;;;;5.82;0.52;;;17.70;96.70;;;;;;4911320;29;20050;-75
2023/05/02 07:33:31;;;;;;;3.03;0.60;;;17.80;96.70;;;;;;4907612;29;20842;-75
2023/05/02 07:36:01;;;;;;;6.35;1.02;;;17.90;96.70;;;;;;4908357;29;20055;-75
2023/05/02 07:38:31;;;;;;;3.55;0.82;;;18.00;96.70;;;;;;4908930;29;20112;-75
2023/05/02 07:41:00;;;;;;;4.45;1.27;;;18.00;96.70;;;;;;4892257;29;20147;-74
2023/05/02 07:43:28;;;;;;;2.97;1.15;;;18.20;96.70;;;;;;4922383;29;20076;-75
2023/05/02 07:45:57;;;;;;;6.03;1.60;;;18.20;96.70;;;;;;4919760;29;20048;-74
2023/05/02 07:48:25;;;;;;;5.15;2.00;;;18.20;96.70;;;;;;4907497;29;20040;-74
2023/05/02 07:50:54;;;;;;;5.68;1.15;;;18.20;96.70;;;;;;4908156;29;20495;-74
2023/05/02 07:53:23;;;;;;;8.23;0.77;;;18.20;96.70;;;;;;4906242;29;20158;-75
2023/05/02 07:55:53;;;;;;;2.35;0.65;;;18.30;96.70;;;;;;4908331;29;20071;-76
2023/05/02 07:58:21;;;;;;;3.35;0.60;;;18.30;96.70;;;;;;4903760;29;20131;-74
2023/05/02 08:00:49;;;;;;;1.90;0.68;;;18.40;96.70;;;;;;4908720;29;20051;-74
2023/05/02 08:03:18;;;;;;;0.98;0.20;;;18.40;96.70;;;;;;4907571;29;20577;-74
2023/05/02 08:05:46;;;;;;;0.17;0.10;;;18.40;96.70;;;;;;4883552;29;20091;-74
2023/05/02 08:08:14;;;;;;;0.20;0.00;;;18.30;96.70;;;;;;4905797;29;20051;-74
2023/05/02 08:10:43;;;;;;;3.08;0.45;;;18.30;96.70;;;;;;4922824;29;20094;-75
2023/05/02 08:13:13;;;;;;;0.60;0.03;;;18.30;96.70;;;;;;4906960;29;20684;-75
2023/05/02 08:15:41;;;;;;;2.17;0.10;;;18.30;96.70;;;;;;4906826;29;20558;-74
2023/05/02 08:18:09;;;;;;;2.47;0.30;;;18.30;96.70;;;;;;4906929;29;20047;-74
2023/05/02 08:20:37;;;;;;;2.70;0.20;;;18.30;96.70;;;;;;4906107;29;20147;-75
2023/05/02 08:23:05;;;;;;;0.60;0.10;;;18.40;96.70;;;;;;4938181;28;20134;-75
2023/05/02 08:25:34;;;;;;;0.43;0.10;;;18.40;96.70;;;;;;4945109;28;20501;-74
2023/05/02 08:28:02;;;;;;;0.95;0.08;;;18.40;96.70;;;;;;4944727;28;20075;-74
2023/05/02 08:30:32;;;;;;;1.48;0.10;;;18.30;96.70;;;;;;4943658;28;20050;-73
2023/05/02 08:33:01;;;;;;;2.05;0.10;;;18.30;96.70;;;;;;4938918;28;20051;-74
2023/05/02 08:35:29;;;;;;;3.42;0.10;;;18.30;96.70;;;;;;4943795;28;20520;-73
2023/05/02 08:37:58;;;;;;;1.45;0.00;;;18.30;96.70;;;;;;4945916;28;20907;-73
2023/05/02 08:40:27;;;;;;;5.43;0.73;;;18.40;96.70;;;;;;4942976;28;20508;-74
2023/05/02 08:43:10;;;;;;;5.75;0.40;;;18.40;96.70;;;;;;4959925;28;20114;-73
2023/05/02 08:45:42;;;;;;;4.25;0.40;;;18.40;96.70;;;;;;4944732;28;20584;-74
2023/05/02 08:48:12;;;;;;;3.35;0.22;;;18.40;96.70;;;;;;4944362;28;20051;-73
2023/05/02 08:50:43;;;;;;;3.13;0.20;;;18.40;96.70;;;;;;4938408;28;20047;-73
2023/05/02 08:53:15;;;;;;;1.08;0.30;;;18.50;96.70;;;;;;4945507;28;20134;-73
2023/05/02 08:55:43;;;;;;;8.23;0.60;;;18.50;96.70;;;;;;4942760;28;20053;-73
2023/05/02 08:58:12;;;;;;;4.95;0.20;;;18.60;96.70;;;;;;4927960;28;20075;-73
2023/05/02 09:00:47;;;;;;;6.25;0.50;;;18.60;96.70;;;;;;4938860;28;20078;-74
2023/05/02 09:03:26;;;;;;;0.30;0.10;;;18.70;96.70;;;;;;4943782;28;20051;-74
2023/05/02 09:06:07;;;;;;;0.65;0.10;;;18.80;96.70;;;;;;4943838;28;20051;-73
2023/05/02 09:08:36;;;;;;;4.05;0.20;;;18.90;96.70;;;;;;4943683;28;20067;-73
2023/05/02 09:11:06;;;;;;;4.20;0.10;;;19.00;96.70;;;;;;4945102;28;20077;-73
2023/05/02 09:13:36;;;;;;;7.20;0.30;;;19.00;96.70;;;;;;4945771;28;20051;-74
2023/05/02 09:16:07;;;;;;;1.38;0.20;;;19.10;96.70;;;;;;4943407;28;20121;-73
2023/05/02 09:18:36;;;;;;;2.17;0.10;;;19.20;96.70;;;;;;4942467;28;20615;-73
2023/05/02 09:21:07;;;;;;;1.23;0.22;;;19.30;96.70;;;;;;4940693;28;20513;-72
2023/05/02 09:23:38;;;;;;;0.30;0.10;;;19.30;96.70;;;;;;4944934;28;20499;-73
2023/05/02 09:26:14;;;;;;;0.03;0.00;;;19.30;96.70;;;;;;4927636;28;20063;-74
2023/05/02 09:28:44;;;;;;;1.27;0.03;;;19.40;96.70;;;;;;4957950;28;20082;-73
2023/05/02 09:31:15;;;;;;;3.45;0.30;;;19.50;96.70;;;;;;4915949;28;20122;-73
2023/05/02 09:34:08;;;;;;;0.20;0.00;;;19.60;96.70;;;;;;4941979;28;20047;-74
2023/05/02 09:36:39;;;;;;;1.45;0.00;;;19.50;96.70;;;;;;4944672;28;20051;-73
2023/05/02 09:39:13;;;;;;;0.45;0.00;;;19.60;96.70;;;;;;4944100;28;20054;-73
2023/05/02 09:41:41;;;;;;;1.05;0.10;;;19.60;96.70;;;;;;4942800;28;20863;-74
2023/05/02 09:44:11;;;;;;;0.60;0.35;;;19.90;96.70;;;;;;4943670;28;20047;-73
2023/05/02 09:46:41;;;;;;;4.03;0.30;;;19.90;96.70;;;;;;4943124;28;20109;-73
2023/05/02 09:49:10;;;;;;;0.43;0.10;;;19.80;96.70;;;;;;4940127;28;20052;-74
2023/05/02 09:51:39;;;;;;;2.17;0.20;;;19.90;96.70;;;;;;4937197;28;20050;-74
2023/05/02 09:54:07;;;;;;;0.90;0.20;;;19.90;96.70;;;;;;4944870;28;20051;-73
2023/05/02 09:56:55;;;;;;;5.82;0.13;;;20.00;96.70;;;;;;4942483;28;20839;-75
2023/05/02 09:59:24;;;;;;;2.45;0.13;;;20.00;96.70;;;;;;4942384;28;20509;-73
2023/05/02 10:01:59;;;;;;;3.65;0.25;;;20.20;96.70;;;;;;4943032;28;21716;-73
2023/05/02 10:04:29;;;;;;;0.85;0.00;;;20.20;96.70;;;;;;4944362;28;20398;-74
2023/05/02 10:06:59;;;;;;;0.88;0.00;;;20.20;96.70;;;;;;4942797;28;20057;-74
2023/05/02 10:09:28;;;;;;;0.05;0.00;;;20.30;96.70;;;;;;4942703;28;20656;-74
2023/05/02 10:12:02;;;;;;;0.82;0.00;;;20.40;96.70;;;;;;4942541;28;20114;-73
2023/05/02 10:14:34;;;;;;;1.88;0.20;;;20.40;96.70;;;;;;4942867;28;20055;-73
2023/05/02 10:17:11;;;;;;;1.77;0.08;;;20.50;96.70;;;;;;4939832;28;20046;-74
2023/05/02 10:19:42;;;;;;;;;;;20.70;96.70;;;;;;4942917;28;20105;-74
2023/05/02 10:22:12;;;;;;;0.17;0.00;;;20.70;96.70;;;;;;4944101;28;19927;-74
2023/05/02 10:24:40;;;;;;;0.50;0.00;;;20.70;96.70;;;;;;4927243;29;20039;-74
2023/05/02 10:27:09;;;;;;;0.00;0.00;;;20.70;96.70;;;;;;4942588;28;20421;-74
2023/05/02 10:29:38;;;;;;;0.10;0.00;;;20.60;96.70;;;;;;4943774;28;20094;-75
2023/05/02 10:32:09;;;;;;;1.35;0.10;;;20.70;96.70;;;;;;4941945;28;20078;-74
2023/05/02 10:34:39;;;;;;;0.40;0.00;;;20.80;96.70;;;;;;4943721;28;20208;-75
2023/05/02 10:37:07;;;;;;;2.08;0.10;;;20.70;96.70;;;;;;4942736;28;20043;-74
2023/05/02 10:39:36;;;;;;;1.00;0.15;;;20.70;96.70;;;;;;4943849;28;20051;-73
2023/05/02 10:42:05;;;;;;;2.08;0.10;;;20.50;96.70;;;;;;4942501;28;20629;-73
2023/05/02 10:44:35;;;;;;;1.40;0.20;;;20.50;96.70;;;;;;4944017;28;20130;-74
2023/05/02 10:49:58;;;;;;;1.23;0.03;;;20.50;96.70;;;;;;5109250;27;1800599;-75
2023/05/02 10:52:28;;;;;;;0.15;0.00;;;20.40;96.70;;;;;;5133559;27;20031;-75
2023/05/02 10:55:18;;;;;;;0.20;0.10;;;20.20;96.70;;;;;;5112964;27;20096;-74
2023/05/02 10:58:21;;;;;;;1.65;0.00;;;20.10;96.70;;;;;;5126387;27;20070;-75
2023/05/02 11:00:50;;;;;;;1.25;0.00;;;20.00;96.70;;;;;;5116571;27;20115;-75
2023/05/02 11:03:52;;;;;;;1.08;0.00;;;20.00;96.70;;;;;;5115267;27;20911;-75
2023/05/02 11:06:23;;;;;;;0.10;0.00;;;19.90;96.70;;;;;;5121161;27;20031;-75
2023/05/02 11:08:51;;;;;;;0.10;0.00;;;20.00;96.70;;;;;;5121193;27;20488;-75
2023/05/02 11:11:40;;;;;;;1.15;0.00;;;20.00;96.70;;;;;;5128687;27;20035;-76
2023/05/02 11:14:11;;;;;;;0.98;0.05;;;20.10;96.70;;;;;;5120541;27;20492;-75
2023/05/02 11:17:08;;;;;;;2.25;0.10;;;20.10;96.70;;;;;;5139633;27;20452;-75
2023/05/02 11:20:22;;;;;;;0.80;0.00;;;20.30;96.70;;;;;;5137255;27;20147;-75
2023/05/02 11:22:58;;;;;;;0.38;0.00;;;20.30;96.70;;;;;;5053690;28;20044;-74
2023/05/02 11:25:35;;;;;;;0.20;0.00;;;20.40;96.70;;;;;;5100286;28;20066;-75
2023/05/02 11:28:06;;;;;;;0.17;0.00;;;20.60;96.70;;;;;;5135368;27;20402;-74
2023/05/02 11:30:39;;;;;;;0.75;0.10;;;20.60;96.70;;;;;;5139761;27;20504;-75
2023/05/02 11:33:16;;;;;;;4.32;0.10;;;20.70;96.70;;;;;;5112520;27;20402;-74
2023/05/02 11:35:46;;;;;;;1.90;0.10;;;20.90;96.70;;;;;;5111881;27;20146;-74
2023/05/02 11:38:33;;;;;;;0.17;0.00;;;21.00;96.70;;;;;;5112739;27;20050;-74
2023/05/02 11:41:03;;;;;;;0.82;0.10;;;21.30;96.70;;;;;;5121081;27;20119;-74
2023/05/02 11:43:31;;;;;;;1.60;0.10;;;21.40;96.70;;;;;;5121703;27;20046;-73
2023/05/02 11:46:00;;;;;;;9.85;0.25;;;21.40;96.70;;;;;;5111016;27;20039;-74
2023/05/02 11:48:30;;;;;;;0.38;0.17;;;21.30;96.70;;;;;;5111035;27;20120;-74
2023/05/02 11:51:04;;;;;;;1.70;0.10;;;21.30;96.70;;;;;;5102759;28;20130;-75
2023/05/02 11:53:40;;;;;;;1.05;0.10;;;21.30;96.70;;;;;;5119095;27;20748;-75
2023/05/02 11:56:08;;;;;;;13.55;0.90;;;21.60;96.70;;;;;;5117607;28;20105;-74
2023/05/02 11:58:37;;;;;;;0.95;0.00;;;22.10;96.70;;;;;;5125556;27;20043;-74
2023/05/02 12:01:13;;;;;;;2.95;0.13;;;22.00;96.70;;;;;;5104808;28;20323;-74
2023/05/02 12:03:41;;;;;;;0.45;0.20;;;22.00;96.70;;;;;;5103638;28;20497;-74
2023/05/02 12:06:12;;;;;;;0.10;0.00;;;22.00;96.70;;;;;;5095572;28;20101;-74
2023/05/02 12:08:43;;;;;;;2.50;0.10;;;22.00;96.70;;;;;;5087802;28;20055;-74
2023/05/02 12:11:14;;;;;;;0.98;0.00;;;22.20;96.70;;;;;;5095793;28;20044;-74
2023/05/02 12:13:46;;;;;;;4.60;0.20;;;22.50;96.70;;;;;;5085590;28;20044;-74
2023/05/02 12:16:16;;;;;;;1.52;0.10;;;22.30;96.70;;;;;;5083436;28;20044;-75
2023/05/02 12:18:46;;;;;;;0.35;0.00;;;22.20;96.70;;;;;;5093987;28;20050;-75
2023/05/02 12:21:16;;;;;;;0.80;0.10;;;22.60;96.70;;;;;;5088895;28;20505;-74
2023/05/02 12:23:46;;;;;;;6.55;0.30;;;23.00;96.70;;;;;;5090407;28;20062;-74
2023/05/02 12:26:20;;;;;;;0.55;0.10;;;22.80;96.70;;;;;;5088640;28;20069;-74
2023/05/02 12:28:50;;;;;;;1.42;0.10;;;22.30;96.70;;;;;;5086495;28;20075;-75
2023/05/02 12:31:18;;;;;;;1.17;0.08;;;22.00;96.70;;;;;;5103784;28;20123;-75
2023/05/02 12:33:49;;;;;;;0.65;0.17;;;21.90;96.70;;;;;;5083539;28;20048;-75
2023/05/02 12:36:17;;;;;;;0.38;0.10;;;22.00;96.70;;;;;;5084312;28;20040;-75
2023/05/02 12:38:52;;;;;;;2.53;0.10;;;22.20;96.70;;;;;;5074383;28;20455;-75
2023/05/02 12:41:31;;;;;;;0.98;0.00;;;22.30;96.70;;;;;;5091744;28;20398;-75
2023/05/02 12:44:00;;;;;;;1.65;0.00;;;22.00;96.70;;;;;;5095674;28;20148;-75
2023/05/02 12:46:30;;;;;;;0.00;0.00;;;21.90;96.70;;;;;;5102156;28;20394;-75
2023/05/02 12:49:04;;;;;;;0.00;0.00;;;21.60;96.70;;;;;;5093366;28;20535;-75
2023/05/02 12:51:33;;;;;;;1.30;0.00;;;21.40;96.70;;;;;;5070444;28;20040;-74
2023/05/02 12:54:03;;;;;;;0.35;0.10;;;21.50;96.70;;;;;;5099624;28;20039;-75
2023/05/02 12:56:38;;;;;;;2.17;0.00;;;21.50;96.70;;;;;;5086508;28;20047;-75
2023/05/02 12:59:07;;;;;;;5.03;0.50;;;21.20;96.70;;;;;;5093395;28;20054;-75
2023/05/02 13:01:35;;;;;;;2.95;0.28;;;21.10;96.70;;;;;;5076078;28;20040;-75
2023/05/02 13:04:04;;;;;;;2.15;0.10;;;21.10;96.70;;;;;;5095447;28;20048;-75
2023/05/02 13:06:36;;;;;;;6.63;0.28;;;21.10;96.70;;;;;;5083016;28;20036;-74
2023/05/02 13:09:06;;;;;;;0.93;0.03;;;21.10;96.70;;;;;;5082254;28;20475;-76
2023/05/02 13:11:35;;;;;;;0.30;0.20;;;21.10;96.70;;;;;;5083054;28;20059;-75
2023/05/02 13:14:04;;;;;;;0.60;0.10;;;21.10;96.70;;;;;;5084088;28;20067;-76
2023/05/02 13:16:35;;;;;;;0.40;0.10;;;21.10;96.70;;;;;;5090230;28;20047;-75
2023/05/02 13:19:04;;;;;;;1.85;0.30;;;21.30;96.70;;;;;;5096878;28;20437;-75
2023/05/02 13:21:32;;;;;;;7.22;0.57;;;21.50;96.70;;;;;;5093181;28;20051;-75
2023/05/02 13:24:02;;;;;;;0.55;0.20;;;21.60;96.70;;;;;;5093158;28;20568;-74
2023/05/02 13:26:33;;;;;;;0.77;0.20;;;21.80;96.70;;;;;;5093519;28;20562;-74
2023/05/02 13:29:01;;;;;;;1.35;0.13;;;21.70;96.70;;;;;;5091129;28;20052;-75
2023/05/02 13:31:31;;;;;;;0.30;0.10;;;21.60;96.70;;;;;;5089896;28;20048;-74
2023/05/02 13:33:59;;;;;;;2.35;0.30;;;22.10;96.70;;;;;;5083730;28;20439;-74
2023/05/02 13:36:28;;;;;;;0.80;0.47;;;22.50;96.70;;;;;;5096276;28;20054;-74
2023/05/02 13:38:56;;;;;;;0.20;0.15;;;22.50;96.70;;;;;;5096401;28;20117;-74
2023/05/02 13:41:25;;;;;;;2.78;0.20;;;22.70;96.70;;;;;;5081488;28;20104;-74
2023/05/02 13:43:55;;;;;;;2.83;0.22;;;22.50;96.70;;;;;;5081681;28;20052;-74
2023/05/02 13:46:24;;;;;;;2.05;0.20;;;22.60;96.70;;;;;;5074734;28;20051;-74
2023/05/02 13:48:52;;;;;;;1.02;0.20;;;22.90;96.70;;;;;;5071926;28;20138;-74
2023/05/02 13:51:21;;;;;;;0.45;0.10;;;23.30;96.70;;;;;;5096322;28;20051;-74
2023/05/02 13:53:49;;;;;;;4.72;0.40;;;23.00;96.70;;;;;;5102556;28;20048;-74
2023/05/02 13:56:18;;;;;;;8.63;0.40;;;23.00;96.70;;;;;;5099829;28;20504;-74
2023/05/02 13:58:46;;;;;;;0.40;0.10;;;22.70;96.70;;;;;;5093616;28;20670;-74
2023/05/02 14:01:16;;;;;;;0.50;0.20;;;22.50;96.70;;;;;;5098413;28;20071;-74
2023/05/02 14:03:44;;;;;;;0.10;0.00;;;22.50;96.70;;;;;;5095308;28;20135;-74
2023/05/02 14:06:13;;;;;;;2.78;0.17;;;22.00;96.70;;;;;;5097655;28;20035;-74
2023/05/02 14:08:41;;;;;;;1.08;0.00;;;22.00;96.70;;;;;;5103161;28;20112;-73
2023/05/02 14:11:10;;;;;;;0.00;0.00;;;22.00;96.70;;;;;;5091070;28;20043;-75
2023/05/02 14:13:38;;;;;;;0.45;0.08;;;21.80;96.70;;;;;;5093498;28;20043;-74
2023/05/02 14:16:07;;;;;;;1.05;0.28;;;21.90;96.70;;;;;;5096724;28;20038;-75
2023/05/02 14:18:39;;;;;;;0.85;0.10;;;22.10;96.70;;;;;;5093240;28;20051;-74
2023/05/02 14:21:07;;;;;;;0.73;0.00;;;22.40;96.70;;;;;;5094864;28;20054;-74
2023/05/02 14:23:35;;;;;;;1.58;0.10;;;22.50;96.70;;;;;;5083724;28;20047;-73
2023/05/02 14:26:04;;;;;;;0.20;0.05;;;22.50;96.70;;;;;;5101383;28;20139;-74
2023/05/02 14:28:32;;;;;;;0.47;0.08;;;22.50;96.70;;;;;;5100086;28;20039;-75
2023/05/02 14:31:01;;;;;;;1.05;0.00;;;22.60;96.70;;;;;;5097822;28;20760;-73
2023/05/02 14:33:29;;;;;;;0.03;0.00;;;22.70;96.70;;;;;;5095631;28;20048;-74
2023/05/02 14:35:59;;;;;;;0.10;0.00;;;22.80;96.70;;;;;;5100888;28;20078;-74
2023/05/02 14:38:28;;;;;;;0.73;0.00;;;22.80;96.70;;;;;;5091855;28;20574;-74
2023/05/02 14:40:56;;;;;;;0.00;0.00;;;22.60;96.70;;;;;;5089571;28;20048;-74
2023/05/02 14:43:25;;;;;;;0.17;0.00;;;22.50;96.70;;;;;;5084437;28;20420;-74
2023/05/02 14:45:55;;;;;;;0.08;0.03;;;22.40;96.70;;;;;;5102456;28;20120;-74
2023/05/02 14:48:23;;;;;;;0.88;0.00;;;22.40;96.70;;;;;;5100049;28;20539;-74
2023/05/02 14:50:52;;;;;;;0.00;0.00;;;22.20;96.70;;;;;;5100390;28;20292;-74
2023/05/02 14:53:22;;;;;;;0.95;0.00;;;22.10;96.70;;;;;;5102133;28;20047;-74
2023/05/02 14:55:50;;;;;;;0.15;0.00;;;22.10;96.70;;;;;;5088347;28;20040;-75
2023/05/02 14:58:19;;;;;;;1.10;0.00;;;21.90;96.70;;;;;;5097109;28;20477;-74
2023/05/02 15:00:47;;;;;;;0.20;0.00;;;21.90;96.70;;;;;;5100944;28;20035;-74
2023/05/02 15:03:16;;;;;;;3.40;0.00;;;22.00;96.70;;;;;;5100729;28;20040;-74
2023/05/02 15:05:45;;;;;;;0.25;0.05;;;22.00;96.70;;;;;;5090169;28;20048;-74
2023/05/02 15:08:15;;;;;;;0.20;0.00;;;22.10;96.70;;;;;;5094562;28;20135;-74
2023/05/02 15:10:45;;;;;;;0.82;0.00;;;21.90;96.70;;;;;;5102354;28;20058;-74
2023/05/02 15:13:13;;;;;;;0.32;0.10;;;21.80;96.70;;;;;;5097361;28;20067;-74
2023/05/02 15:15:41;;;;;;;0.40;0.10;;;21.70;96.70;;;;;;5099549;28;20036;-74
2023/05/02 15:18:10;;;;;;;0.00;0.00;;;21.50;96.70;;;;;;5094137;28;20042;-74
2023/05/02 15:20:38;;;;;;;0.43;0.00;;;21.40;96.70;;;;;;5091263;28;20059;-74
2023/05/02 15:23:07;;;;;;;1.00;0.10;;;21.30;96.70;;;;;;5095308;28;20055;-74
2023/05/02 15:25:35;;;;;;;1.25;0.10;;;21.20;96.70;;;;;;5101485;28;20036;-74
2023/05/02 15:28:06;;;;;;;1.65;0.13;;;21.30;96.70;;;;;;5093448;28;20663;-74
2023/05/02 15:30:35;;;;;;;0.95;0.08;;;21.20;96.70;;;;;;5100039;28;20050;-74
2023/05/02 15:33:03;;;;;;;0.20;0.00;;;21.10;96.70;;;;;;5090187;28;20649;-74
2023/05/02 15:35:32;;;;;;;1.10;0.00;;;21.00;96.70;;;;;;5101016;28;20121;-75
2023/05/02 15:38:00;;;;;;;0.55;0.00;;;20.90;96.70;;;;;;5094840;28;20059;-74
2023/05/02 15:40:29;;;;;;;1.08;0.10;;;20.90;96.70;;;;;;5105335;28;20085;-73
2023/05/02 15:42:57;;;;;;;1.08;0.20;;;20.80;96.70;;;;;;5104137;28;20408;-73
2023/05/02 15:45:27;;;;;;;0.20;0.08;;;20.70;96.70;;;;;;5096524;28;20085;-74
2023/05/02 15:47:55;;;;;;;0.47;0.00;;;20.60;96.70;;;;;;5104869;27;20100;-74
2023/05/02 15:50:24;;;;;;;0.47;0.10;;;20.60;96.70;;;;;;5099413;27;20047;-74
2023/05/02 15:52:53;;;;;;;0.15;0.00;;;20.50;96.70;;;;;;5090111;27;20130;-74
2023/05/02 15:55:21;;;;;;;0.70;0.10;;;20.40;96.70;;;;;;5107086;27;20039;-74
2023/05/02 15:57:50;;;;;;;0.20;0.10;;;20.40;96.70;;;;;;5106047;27;20039;-74